Time;durP1;ratioP1;P1;durP2;ratioP2;P2;SDS_P1;SDS_P2;PMS_P1;PMS_P2;Temp;Humidity;BMP_temperature;BMP_pressure;BME280_temperature;BME280_humidity;BME280_pressure;Samples;Min_cycle;Max_cycle;Signal;HPM_P1;HPM_P2
2021/10/01 00:01:29;;;;;;;12.00;11.30;;;11.90;99.90;;;;;;5032436;28;20880;-65
2021/10/01 00:03:57;;;;;;;11.70;11.27;;;11.90;99.90;;;;;;5032256;28;20449;-65
2021/10/01 00:06:24;;;;;;;11.90;11.50;;;11.90;99.90;;;;;;5031886;28;20476;-61
2021/10/01 00:08:51;;;;;;;12.00;11.47;;;11.90;99.90;;;;;;5031802;28;20489;-61
2021/10/01 00:11:18;;;;;;;12.23;11.63;;;11.90;99.90;;;;;;5032387;28;20937;-63
2021/10/01 00:13:45;;;;;;;12.40;11.40;;;11.80;99.90;;;;;;5032116;28;20810;-61
2021/10/01 00:16:12;;;;;;;11.40;10.80;;;11.80;99.90;;;;;;5031721;28;21055;-64
2021/10/01 00:18:39;;;;;;;12.23;11.20;;;11.80;99.90;;;;;;5031903;28;20445;-64
2021/10/01 00:21:07;;;;;;;11.33;10.93;;;11.80;99.90;;;;;;5032123;28;20453;-63
2021/10/01 00:23:34;;;;;;;12.10;11.40;;;11.80;99.90;;;;;;5031944;28;20445;-61
2021/10/01 00:26:01;;;;;;;12.67;11.93;;;11.70;99.90;;;;;;5031647;28;20464;-63
2021/10/01 00:28:27;;;;;;;11.67;11.27;;;11.70;99.90;;;;;;5031613;28;20481;-64
2021/10/01 00:30:55;;;;;;;11.03;10.63;;;11.70;99.90;;;;;;5031803;28;20499;-62
2021/10/01 00:33:21;;;;;;;11.40;11.00;;;11.70;99.90;;;;;;5031937;28;20791;-60
2021/10/01 00:35:48;;;;;;;11.40;10.93;;;11.70;99.90;;;;;;5031802;28;20464;-63
2021/10/01 00:38:16;;;;;;;10.87;10.40;;;11.70;99.90;;;;;;5031345;28;20956;-64
2021/10/01 00:40:43;;;;;;;10.60;10.20;;;11.70;99.90;;;;;;5031708;28;20448;-64
2021/10/01 00:43:10;;;;;;;10.90;10.50;;;11.70;99.90;;;;;;5031564;28;20946;-65
2021/10/01 00:45:37;;;;;;;10.90;10.57;;;11.70;99.90;;;;;;5031618;28;20918;-64
2021/10/01 00:48:04;;;;;;;10.93;10.43;;;11.70;99.90;;;;;;5030918;28;20484;-58
2021/10/01 00:50:30;;;;;;;13.70;10.93;;;11.70;99.90;;;;;;5031537;28;20452;-63
2021/10/01 00:52:59;;;;;;;10.63;10.33;;;11.70;99.90;;;;;;5031539;28;20447;-60
2021/10/01 00:55:27;;;;;;;11.13;10.63;;;11.70;99.90;;;;;;5031639;28;21001;-63
2021/10/01 00:57:54;;;;;;;10.80;10.20;;;11.60;99.90;;;;;;5031053;28;20445;-65
2021/10/01 01:00:27;;;;;;;11.33;10.83;;;11.60;99.90;;;;;;5031351;28;21062;-62
2021/10/01 01:02:56;;;;;;;10.20;9.90;;;11.50;99.90;;;;;;5031520;28;20548;-64
2021/10/01 01:05:28;;;;;;;11.03;10.50;;;11.50;99.90;;;;;;5066323;23;20489;-63
2021/10/01 01:08:01;;;;;;;10.90;10.40;;;11.40;99.90;;;;;;5004143;28;20477;-63
2021/10/01 01:10:41;;;;;;;10.80;10.30;;;11.40;99.90;;;;;;5011766;28;20442;-64
2021/10/01 01:13:14;;;;;;;10.73;10.20;;;11.40;99.90;;;;;;5010710;28;20454;-64
2021/10/01 01:15:48;;;;;;;10.30;9.90;;;11.40;99.90;;;;;;5011681;28;20469;-64
2021/10/01 01:18:20;;;;;;;10.57;10.07;;;11.30;99.90;;;;;;5011568;28;20441;-63
2021/10/01 01:20:49;;;;;;;10.20;9.80;;;11.30;99.90;;;;;;5011639;28;20446;-61
2021/10/01 01:23:31;;;;;;;10.57;9.97;;;11.30;99.90;;;;;;5010743;28;20446;-64
2021/10/01 01:26:09;;;;;;;11.00;10.60;;;11.20;99.90;;;;;;5011538;28;20473;-63
2021/10/01 01:28:42;;;;;;;10.37;9.90;;;11.20;99.90;;;;;;5011277;28;20481;-63
2021/10/01 01:31:17;;;;;;;10.80;10.30;;;11.20;99.90;;;;;;5010186;28;20453;-63
2021/10/01 01:33:47;;;;;;;11.13;10.50;;;11.20;99.90;;;;;;4991883;28;20453;-62
2021/10/01 01:36:15;;;;;;;10.93;10.40;;;11.10;99.90;;;;;;4991786;28;20474;-63
2021/10/01 01:38:48;;;;;;;10.90;10.13;;;11.10;99.90;;;;;;4991734;28;20450;-62
2021/10/01 01:41:18;;;;;;;10.43;9.90;;;11.10;99.90;;;;;;4993273;28;20487;-64
2021/10/01 01:43:46;;;;;;;11.20;10.70;;;11.00;99.90;;;;;;5011391;28;20944;-63
2021/10/01 01:46:13;;;;;;;10.23;9.93;;;11.00;99.90;;;;;;5011351;28;21025;-63
2021/10/01 01:48:41;;;;;;;11.20;10.30;;;11.00;99.90;;;;;;5002933;28;20505;-63
2021/10/01 01:51:11;;;;;;;11.07;10.67;;;10.90;99.90;;;;;;4991714;28;20458;-62
2021/10/01 01:53:38;;;;;;;10.33;9.73;;;10.90;99.90;;;;;;4991743;28;20469;-62
2021/10/01 01:56:06;;;;;;;10.23;9.83;;;10.90;99.90;;;;;;4995068;28;20475;-64
2021/10/01 01:58:34;;;;;;;10.90;10.20;;;10.80;99.90;;;;;;5001557;28;20445;-63
2021/10/01 02:01:01;;;;;;;10.90;10.33;;;10.80;99.90;;;;;;5014979;28;20442;-64
2021/10/01 02:03:30;;;;;;;11.20;10.80;;;10.80;99.90;;;;;;5014871;28;20446;-62
2021/10/01 02:05:59;;;;;;;12.10;11.30;;;10.70;99.90;;;;;;5014602;28;21010;-63
2021/10/01 02:08:28;;;;;;;11.57;10.60;;;10.70;99.90;;;;;;4995276;28;20482;-63
2021/10/01 02:10:57;;;;;;;12.27;11.80;;;10.70;99.90;;;;;;4994973;28;20446;-63
2021/10/01 02:13:24;;;;;;;11.90;11.50;;;10.70;99.90;;;;;;4995039;28;20450;-64
2021/10/01 02:15:54;;;;;;;12.20;11.30;;;10.70;99.90;;;;;;4994859;28;20479;-63
2021/10/01 02:18:23;;;;;;;11.77;11.37;;;10.80;99.90;;;;;;5012880;28;20449;-64
2021/10/01 02:20:51;;;;;;;12.03;11.43;;;10.80;99.90;;;;;;5014476;28;20457;-62
2021/10/01 02:23:18;;;;;;;12.50;12.00;;;10.80;99.90;;;;;;5014525;28;20942;-62
2021/10/01 02:28:35;;;;;;;12.00;11.60;;;10.80;99.90;;;;;;5013819;28;20480;-63
2021/10/01 02:31:04;;;;;;;11.80;11.20;;;10.80;99.90;;;;;;5014761;28;20919;-64
2021/10/01 02:33:37;;;;;;;11.73;11.43;;;10.80;99.90;;;;;;5014240;28;20453;-63
2021/10/01 02:36:04;;;;;;;12.50;11.90;;;10.80;99.90;;;;;;5014108;28;20462;-64
2021/10/01 02:38:31;;;;;;;12.63;11.87;;;10.80;99.90;;;;;;5013971;28;20512;-64
2021/10/01 02:41:00;;;;;;;12.73;11.77;;;10.80;99.90;;;;;;5008637;28;20454;-64
2021/10/01 02:43:26;;;;;;;12.47;12.00;;;10.80;99.90;;;;;;4994504;28;20451;-62
2021/10/01 02:45:53;;;;;;;12.20;11.73;;;10.80;99.90;;;;;;4994283;28;20463;-63
2021/10/01 02:48:20;;;;;;;12.73;12.23;;;10.80;99.90;;;;;;4994093;28;20479;-62
2021/10/01 02:50:51;;;;;;;13.20;12.50;;;10.80;99.90;;;;;;4994335;28;20446;-62
2021/10/01 02:53:22;;;;;;;12.17;11.77;;;10.90;99.90;;;;;;5001956;28;20508;-62
2021/10/01 02:55:54;;;;;;;12.37;11.87;;;10.90;99.90;;;;;;5013509;28;20466;-64
2021/10/01 02:58:27;;;;;;;12.90;12.20;;;10.90;99.90;;;;;;5013913;28;20806;-63
2021/10/01 03:00:55;;;;;;;12.97;12.23;;;10.90;99.90;;;;;;5013815;28;20646;-63
2021/10/01 03:03:23;;;;;;;13.20;12.50;;;10.90;99.90;;;;;;5013744;28;20472;-66
2021/10/01 03:05:52;;;;;;;12.13;11.83;;;11.00;99.90;;;;;;5002110;28;20499;-62
2021/10/01 03:08:21;;;;;;;12.87;12.37;;;11.00;99.90;;;;;;4993859;28;21006;-63
2021/10/01 03:10:50;;;;;;;13.33;12.50;;;11.00;99.90;;;;;;4993946;28;20459;-63
2021/10/01 03:13:19;;;;;;;12.93;12.40;;;11.10;99.90;;;;;;4993891;28;20515;-63
2021/10/01 03:15:49;;;;;;;13.17;12.37;;;11.10;99.90;;;;;;4993854;28;20463;-62
2021/10/01 03:18:16;;;;;;;12.90;12.07;;;11.10;99.90;;;;;;5005068;28;21009;-62
2021/10/01 03:20:44;;;;;;;12.90;12.50;;;11.10;99.90;;;;;;5013362;28;20825;-63
2021/10/01 03:23:11;;;;;;;13.67;12.83;;;11.20;99.90;;;;;;5013521;28;20539;-63
2021/10/01 03:25:38;;;;;;;13.03;12.50;;;11.20;99.90;;;;;;5013249;28;20473;-63
2021/10/01 03:28:06;;;;;;;13.33;12.73;;;11.20;99.90;;;;;;5013051;28;20478;-63
2021/10/01 03:30:33;;;;;;;12.83;12.43;;;11.10;99.90;;;;;;4998401;28;20450;-62
2021/10/01 03:33:01;;;;;;;13.43;12.70;;;11.20;99.90;;;;;;4993546;28;20824;-63
2021/10/01 03:35:29;;;;;;;12.50;12.10;;;11.10;99.90;;;;;;4993487;28;20501;-63
2021/10/01 03:37:57;;;;;;;13.27;12.63;;;11.10;99.90;;;;;;4993288;28;20549;-61
2021/10/01 03:40:29;;;;;;;14.00;13.20;;;11.10;99.90;;;;;;4993294;28;20937;-61
2021/10/01 03:42:56;;;;;;;13.13;12.60;;;11.10;99.90;;;;;;5010403;28;20469;-63
2021/10/01 03:45:22;;;;;;;13.73;13.23;;;11.10;99.90;;;;;;5012876;28;20473;-62
2021/10/01 03:47:49;;;;;;;13.00;12.50;;;11.10;99.90;;;;;;5012702;28;20457;-66
2021/10/01 03:50:17;;;;;;;13.20;12.77;;;11.00;99.90;;;;;;5012664;28;21025;-65
2021/10/01 03:52:44;;;;;;;13.13;12.53;;;11.00;99.90;;;;;;5010873;28;20449;-64
2021/10/01 03:55:18;;;;;;;13.20;12.60;;;11.00;99.90;;;;;;4993035;28;20554;-65
2021/10/01 03:57:45;;;;;;;13.23;12.63;;;10.90;99.90;;;;;;4993113;28;20450;-63
2021/10/01 04:00:13;;;;;;;13.57;12.97;;;10.90;99.90;;;;;;4992964;28;20458;-64
2021/10/01 04:02:40;;;;;;;13.23;12.77;;;10.80;99.90;;;;;;4992926;28;20454;-63
2021/10/01 04:05:07;;;;;;;13.80;13.30;;;10.80;99.90;;;;;;4996181;28;20943;-62
2021/10/01 04:07:35;;;;;;;13.50;13.00;;;10.80;99.90;;;;;;5012767;28;20446;-64
2021/10/01 04:10:02;;;;;;;13.80;13.20;;;10.80;99.90;;;;;;5012324;28;20492;-64
2021/10/01 04:12:29;;;;;;;13.67;13.07;;;10.80;99.90;;;;;;5012336;28;20446;-65
2021/10/01 04:14:56;;;;;;;13.37;12.97;;;10.80;99.90;;;;;;4998686;28;20836;-65
2021/10/01 04:17:22;;;;;;;14.23;13.53;;;10.90;99.90;;;;;;4992350;28;20538;-65
2021/10/01 04:19:50;;;;;;;14.30;13.60;;;10.90;99.90;;;;;;4992544;28;20784;-65
2021/10/01 04:22:17;;;;;;;13.63;13.03;;;10.90;99.90;;;;;;4992674;28;20467;-66
2021/10/01 04:24:45;;;;;;;14.77;14.07;;;10.90;99.90;;;;;;5006009;28;20450;-65
2021/10/01 04:27:12;;;;;;;14.40;13.53;;;10.90;99.90;;;;;;5012203;28;20991;-64
2021/10/01 04:29:38;;;;;;;14.50;13.90;;;10.90;99.90;;;;;;5011880;28;20484;-64
2021/10/01 04:32:07;;;;;;;14.40;13.83;;;10.90;99.90;;;;;;5012276;28;20808;-65
2021/10/01 04:34:43;;;;;;;14.43;13.73;;;10.90;99.90;;;;;;5012247;28;20445;-65
2021/10/01 04:37:10;;;;;;;14.07;13.57;;;10.80;99.90;;;;;;5011814;28;20470;-65
2021/10/01 04:39:37;;;;;;;14.87;14.27;;;10.80;99.90;;;;;;5011888;28;20445;-64
2021/10/01 04:42:05;;;;;;;14.40;13.70;;;10.70;99.90;;;;;;5011890;28;20825;-64
2021/10/01 04:44:31;;;;;;;14.07;13.43;;;10.70;99.90;;;;;;5011939;28;20450;-65
2021/10/01 04:46:58;;;;;;;14.10;13.50;;;10.70;99.90;;;;;;5009542;28;20465;-64
2021/10/01 04:49:25;;;;;;;14.93;14.43;;;10.60;99.90;;;;;;4992065;28;20486;-65
2021/10/01 04:51:51;;;;;;;15.70;15.00;;;10.60;99.90;;;;;;4992017;28;20462;-65
2021/10/01 04:54:18;;;;;;;14.97;14.37;;;10.60;99.90;;;;;;4992366;28;20963;-65
2021/10/01 04:56:45;;;;;;;16.00;15.20;;;10.60;99.90;;;;;;4992329;28;20474;-67
2021/10/01 04:59:15;;;;;;;16.13;15.43;;;10.60;99.90;;;;;;4992984;28;20447;-65
2021/10/01 05:01:42;;;;;;;15.17;14.67;;;10.50;99.90;;;;;;5011788;28;20446;-65
2021/10/01 05:04:09;;;;;;;16.53;15.40;;;10.50;99.90;;;;;;5011806;28;20796;-67
2021/10/01 05:06:35;;;;;;;15.70;15.10;;;10.50;99.90;;;;;;5011764;28;20482;-67
2021/10/01 05:09:02;;;;;;;15.63;14.73;;;10.50;99.90;;;;;;5011577;28;20481;-66
2021/10/01 05:11:29;;;;;;;15.80;15.00;;;10.40;99.90;;;;;;5011000;28;20450;-66
2021/10/01 05:13:55;;;;;;;16.20;15.10;;;10.50;99.90;;;;;;4992045;28;20462;-65
2021/10/01 05:16:23;;;;;;;15.97;15.27;;;10.40;99.90;;;;;;4991942;28;20462;-67
2021/10/01 05:18:50;;;;;;;16.00;15.50;;;10.40;99.90;;;;;;4992130;28;20497;-67
2021/10/01 05:21:17;;;;;;;16.63;15.93;;;10.40;99.90;;;;;;4991913;28;20454;-66
2021/10/01 05:23:43;;;;;;;16.60;15.70;;;10.40;99.90;;;;;;4995346;28;20859;-66
2021/10/01 05:26:11;;;;;;;16.70;15.70;;;10.40;99.90;;;;;;5011419;28;20465;-66
2021/10/01 05:28:37;;;;;;;16.40;15.70;;;10.50;99.90;;;;;;5012503;28;20449;-67
2021/10/01 05:31:04;;;;;;;16.10;15.50;;;10.50;99.90;;;;;;5015307;28;20818;-66
2021/10/01 05:33:32;;;;;;;15.97;15.20;;;10.50;99.90;;;;;;4999795;28;20474;-66
2021/10/01 05:35:59;;;;;;;15.73;15.13;;;10.50;99.90;;;;;;4995500;28;20471;-66
2021/10/01 05:38:25;;;;;;;16.13;15.33;;;10.50;99.90;;;;;;4995471;28;20809;-65
2021/10/01 05:40:52;;;;;;;15.93;15.33;;;10.50;99.90;;;;;;4995594;28;20783;-67
2021/10/01 05:43:24;;;;;;;16.23;15.47;;;10.50;99.90;;;;;;4996885;28;20453;-66
2021/10/01 05:45:53;;;;;;;16.10;15.50;;;10.50;99.90;;;;;;4995602;28;20497;-66
2021/10/01 05:48:20;;;;;;;16.10;15.30;;;10.50;99.90;;;;;;4995250;28;20991;-67
2021/10/01 05:50:53;;;;;;;16.00;15.50;;;10.60;99.90;;;;;;4995193;28;20553;-65
2021/10/01 05:53:36;;;;;;;15.90;15.40;;;10.60;99.90;;;;;;4995361;28;20458;-66
2021/10/01 05:56:03;;;;;;;17.20;16.20;;;10.60;99.90;;;;;;5012496;28;20473;-65
2021/10/01 05:58:30;;;;;;;17.17;16.37;;;10.70;99.90;;;;;;5014725;28;20821;-65
2021/10/01 06:01:00;;;;;;;16.10;15.50;;;10.70;99.90;;;;;;5014751;28;20441;-65
2021/10/01 06:03:27;;;;;;;16.50;15.80;;;10.80;99.90;;;;;;5014776;28;20793;-66
2021/10/01 06:05:55;;;;;;;16.30;15.70;;;10.80;99.90;;;;;;5012006;28;21004;-65
2021/10/01 06:08:22;;;;;;;16.73;16.03;;;10.90;99.90;;;;;;4994996;28;20455;-66
2021/10/01 06:10:49;;;;;;;16.63;15.83;;;11.00;99.90;;;;;;4995155;28;20572;-65
2021/10/01 06:13:16;;;;;;;17.30;16.43;;;11.00;99.90;;;;;;4994930;28;20446;-66
2021/10/01 06:15:43;;;;;;;17.17;16.17;;;11.00;99.90;;;;;;5009147;28;20469;-65
2021/10/01 06:18:11;;;;;;;17.30;16.60;;;11.10;99.90;;;;;;5014373;28;20446;-66
2021/10/01 06:20:37;;;;;;;16.83;16.10;;;11.10;99.90;;;;;;5014413;28;20452;-67
2021/10/01 06:23:05;;;;;;;17.47;16.57;;;11.20;99.90;;;;;;5007940;28;20803;-66
2021/10/01 06:25:32;;;;;;;16.77;15.87;;;11.20;99.90;;;;;;4994606;28;20470;-65
2021/10/01 06:27:59;;;;;;;17.33;16.50;;;11.30;99.90;;;;;;4994677;28;20774;-65
2021/10/01 06:30:26;;;;;;;16.17;15.57;;;11.30;99.90;;;;;;4994595;28;20822;-65
2021/10/01 06:32:52;;;;;;;17.00;16.20;;;11.40;99.90;;;;;;4998813;28;20450;-66
2021/10/01 06:35:19;;;;;;;16.40;15.60;;;11.50;99.90;;;;;;5013904;28;20804;-65
2021/10/01 06:37:46;;;;;;;16.60;15.80;;;11.60;99.90;;;;;;4994414;28;20443;-65
2021/10/01 06:40:14;;;;;;;16.67;15.87;;;11.70;99.90;;;;;;4993945;28;20539;-64
2021/10/01 06:42:47;;;;;;;16.00;15.40;;;11.80;99.90;;;;;;4996257;28;20470;-64
2021/10/01 06:45:17;;;;;;;18.23;16.57;;;11.90;99.90;;;;;;5014034;28;20541;-64
2021/10/01 06:47:48;;;;;;;16.80;15.90;;;12.00;99.90;;;;;;5013987;28;20813;-64
2021/10/01 06:50:31;;;;;;;18.40;16.97;;;12.20;99.90;;;;;;5013837;28;20481;-64
2021/10/01 07:23:46;;;;;;;16.93;16.20;;;13.20;99.90;;;;;;4989760;28;20887;-64
2021/10/01 08:18:58;;;;;;;16.70;16.00;;;14.70;99.90;;;;;;5101289;28;20901;-62
2021/10/01 08:21:26;;;;;;;17.10;16.40;;;14.80;99.90;;;;;;5108740;28;20477;-65
2021/10/01 08:23:59;;;;;;;16.80;16.20;;;15.00;99.90;;;;;;5108556;28;20789;-65
2021/10/01 08:26:30;;;;;;;17.40;16.80;;;15.10;99.90;;;;;;5106702;28;20478;-65
2021/10/01 08:28:57;;;;;;;17.17;16.47;;;15.20;99.90;;;;;;5107699;28;20810;-64
2021/10/01 08:31:27;;;;;;;17.07;16.47;;;15.40;99.90;;;;;;5107721;28;20786;-64
2021/10/01 08:33:54;;;;;;;17.33;16.70;;;15.50;99.90;;;;;;5105345;28;20900;-64
2021/10/01 08:36:20;;;;;;;17.70;16.90;;;15.60;99.90;;;;;;5087757;28;20474;-64
2021/10/01 08:38:48;;;;;;;18.90;17.80;;;15.80;99.90;;;;;;5087770;28;20442;-63
2021/10/01 08:41:15;;;;;;;17.90;17.30;;;16.10;99.90;;;;;;5087736;28;20482;-65
2021/10/01 08:43:45;;;;;;;16.90;16.30;;;16.30;99.90;;;;;;5088236;28;20445;-64
2021/10/01 08:46:11;;;;;;;17.80;17.10;;;16.50;99.90;;;;;;5087583;28;20501;-64
2021/10/01 08:48:39;;;;;;;17.50;16.90;;;16.80;99.90;;;;;;5074967;28;20835;-64
2021/10/01 08:51:07;;;;;;;19.13;18.23;;;17.10;99.90;;;;;;5073725;28;20447;-64
2021/10/01 08:53:35;;;;;;;18.10;17.43;;;17.50;99.90;;;;;;5074017;28;20855;-63
2021/10/01 08:56:02;;;;;;;19.00;18.20;;;17.70;99.60;;;;;;5075053;28;20822;-63
2021/10/01 08:58:29;;;;;;;18.47;17.67;;;18.00;98.40;;;;;;5093716;28;20453;-64
2021/10/01 09:00:58;;;;;;;18.50;17.70;;;18.10;97.70;;;;;;5094563;28;20450;-66
2021/10/01 09:03:25;;;;;;;18.27;17.37;;;18.10;96.90;;;;;;5093706;28;20442;-65
2021/10/01 09:05:52;;;;;;;18.60;17.80;;;18.20;96.10;;;;;;5093817;28;21013;-65
2021/10/01 09:08:21;;;;;;;18.27;17.43;;;18.00;95.70;;;;;;5093670;28;20446;-64
2021/10/01 09:10:57;;;;;;;18.67;17.87;;;17.90;96.50;;;;;;5087272;28;20440;-64
2021/10/01 09:13:24;;;;;;;18.77;18.03;;;17.60;96.60;;;;;;5073768;28;20446;-66
2021/10/01 09:16:01;;;;;;;17.40;16.80;;;17.40;96.60;;;;;;5073650;28;20470;-65
2021/10/01 09:18:29;;;;;;;17.57;16.80;;;17.10;97.10;;;;;;5073513;28;20439;-64
2021/10/01 09:21:07;;;;;;;17.90;17.17;;;16.90;97.60;;;;;;5061996;28;20818;-63
2021/10/01 09:23:40;;;;;;;17.50;16.70;;;16.80;97.90;;;;;;5075007;28;20450;-63
2021/10/01 09:26:08;;;;;;;17.50;16.80;;;16.60;98.30;;;;;;5081562;28;20490;-66
2021/10/01 09:28:51;;;;;;;17.30;16.60;;;16.70;99.10;;;;;;5081615;28;21011;-66
2021/10/01 09:31:38;;;;;;;17.37;16.77;;;16.80;99.30;;;;;;5081524;28;20879;-65
2021/10/01 09:34:07;;;;;;;19.17;18.33;;;17.00;99.40;;;;;;5081396;28;20442;-64
2021/10/01 09:36:35;;;;;;;17.37;16.57;;;17.10;99.10;;;;;;5061486;28;21014;-65
2021/10/01 09:39:02;;;;;;;17.63;16.73;;;17.20;99.10;;;;;;5061230;28;20459;-65
2021/10/01 09:41:33;;;;;;;32.40;17.80;;;17.30;98.50;;;;;;5061280;28;20813;-62
2021/10/01 09:44:07;;;;;;;17.20;16.60;;;17.50;98.70;;;;;;5061642;28;20459;-63
2021/10/01 09:46:38;;;;;;;17.70;17.00;;;17.70;98.40;;;;;;5060944;28;20552;-65
2021/10/01 09:49:06;;;;;;;17.30;16.70;;;17.70;97.50;;;;;;5060889;28;20451;-65
2021/10/01 09:51:34;;;;;;;17.90;17.10;;;17.90;97.70;;;;;;5061098;28;20487;-65
2021/10/01 09:54:12;;;;;;;17.90;17.30;;;18.00;97.20;;;;;;5073864;28;20446;-66
2021/10/01 09:56:39;;;;;;;17.70;17.10;;;18.10;96.40;;;;;;5080962;28;20466;-66
2021/10/01 09:59:09;;;;;;;17.30;16.70;;;18.20;96.60;;;;;;5080202;28;20442;-66
2021/10/01 10:01:56;;;;;;;18.17;17.43;;;18.30;95.50;;;;;;5080975;28;20820;-66
2021/10/01 10:04:23;;;;;;;17.77;17.10;;;18.40;95.00;;;;;;5081064;28;20529;-67
2021/10/01 10:06:50;;;;;;;17.77;17.07;;;18.50;94.40;;;;;;5061443;28;20491;-66
2021/10/01 10:09:31;;;;;;;18.27;17.37;;;18.70;94.60;;;;;;5060655;28;20451;-66
2021/10/01 10:11:57;;;;;;;18.27;17.43;;;18.90;94.60;;;;;;5060823;28;20458;-66
2021/10/01 10:14:24;;;;;;;17.87;17.27;;;19.00;94.20;;;;;;5060889;28;20451;-66
2021/10/01 10:16:52;;;;;;;18.33;17.63;;;19.00;93.60;;;;;;5060819;28;20498;-67
2021/10/01 10:19:22;;;;;;;18.13;17.43;;;19.10;93.00;;;;;;5080839;28;20453;-66
2021/10/01 10:21:49;;;;;;;17.80;17.10;;;19.20;92.60;;;;;;5080423;28;20442;-65
2021/10/01 10:24:16;;;;;;;18.20;17.50;;;19.30;92.20;;;;;;5080345;28;20458;-66
2021/10/01 10:26:43;;;;;;;18.10;17.40;;;19.30;91.50;;;;;;5080364;28;21375;-65
2021/10/01 10:29:12;;;;;;;19.40;18.10;;;19.50;91.90;;;;;;5080041;28;20880;-65
2021/10/01 10:31:43;;;;;;;18.67;17.70;;;19.70;91.40;;;;;;5060203;28;20454;-65
2021/10/01 10:34:21;;;;;;;18.33;17.47;;;20.00;90.90;;;;;;5060299;28;20525;-65
2021/10/01 10:36:49;;;;;;;20.13;18.33;;;20.00;89.70;;;;;;5060037;28;20485;-65
2021/10/01 10:39:44;;;;;;;18.37;17.67;;;19.90;86.20;;;;;;5060578;28;20828;-65
2021/10/01 10:42:18;;;;;;;19.20;18.30;;;20.30;85.90;;;;;;5060385;28;20906;-65
2021/10/01 10:44:48;;;;;;;16.67;16.17;;;20.60;84.20;;;;;;5059989;28;20573;-65
2021/10/01 10:47:41;;;;;;;16.97;16.37;;;20.80;82.60;;;;;;5071909;28;20490;-65
2021/10/01 10:50:30;;;;;;;16.47;15.87;;;21.10;78.80;;;;;;5080162;28;20532;-65
2021/10/01 10:53:16;;;;;;;18.07;17.33;;;21.40;77.30;;;;;;5080286;28;20442;-64
2021/10/01 10:55:45;;;;;;;17.77;17.10;;;21.70;75.00;;;;;;5080531;28;20473;-65
2021/10/01 10:58:50;;;;;;;18.10;17.30;;;21.90;74.40;;;;;;5061851;28;20486;-66
2021/10/01 11:01:34;;;;;;;17.23;16.57;;;22.20;73.50;;;;;;5060294;28;20457;-64
2021/10/01 11:04:40;;;;;;;18.47;17.67;;;22.20;70.50;;;;;;5059980;28;20481;-64
2021/10/01 11:07:10;;;;;;;18.03;17.07;;;22.60;68.30;;;;;;5068063;28;20489;-65
2021/10/01 11:09:39;;;;;;;18.40;17.70;;;23.20;67.60;;;;;;5059409;28;20884;-65
2021/10/01 11:12:30;;;;;;;20.50;19.50;;;23.60;63.30;;;;;;5059603;28;21026;-65
2021/10/01 11:15:16;;;;;;;18.33;17.73;;;24.30;61.90;;;;;;5054079;28;20451;-65
2021/10/01 11:17:43;;;;;;;17.20;16.60;;;24.60;58.50;;;;;;5065403;28;20442;-65
2021/10/01 11:20:34;;;;;;;17.17;16.57;;;24.80;57.40;;;;;;5079488;28;20479;-65
2021/10/01 11:23:16;;;;;;;19.17;18.40;;;25.80;55.50;;;;;;5080260;28;20788;-66
2021/10/01 11:25:44;;;;;;;18.40;17.80;;;26.70;52.90;;;;;;5080281;28;20462;-65
2021/10/01 11:28:12;;;;;;;18.20;17.27;;;28.00;50.00;;;;;;5079885;28;20498;-65
2021/10/01 11:30:40;;;;;;;20.47;19.30;;;28.10;47.40;;;;;;5068407;28;20538;-65
2021/10/01 11:33:11;;;;;;;19.60;18.80;;;29.50;45.70;;;;;;5059856;28;20625;-66
2021/10/01 11:35:53;;;;;;;19.53;18.80;;;30.20;42.90;;;;;;5059359;28;20950;-66
2021/10/01 11:38:24;;;;;;;19.57;18.30;;;30.90;41.00;;;;;;5059694;28;20932;-66
2021/10/01 11:41:04;;;;;;;18.47;17.77;;;31.30;40.00;;;;;;5059584;28;20442;-65
2021/10/01 11:43:31;;;;;;;18.97;18.37;;;31.60;39.10;;;;;;5075249;28;20484;-66
2021/10/01 11:45:58;;;;;;;19.63;18.50;;;31.40;38.20;;;;;;5079539;28;20473;-66
2021/10/01 11:48:34;;;;;;;21.50;19.43;;;32.10;37.80;;;;;;5079178;28;20481;-64
2021/10/01 11:51:01;;;;;;;20.00;18.80;;;33.10;36.30;;;;;;5078112;28;20553;-64
2021/10/01 11:53:34;;;;;;;20.83;20.03;;;34.10;34.70;;;;;;5079544;28;20452;-63
2021/10/01 11:56:03;;;;;;;19.43;18.73;;;34.60;33.40;;;;;;5079334;28;20811;-64
2021/10/01 11:58:31;;;;;;;20.57;19.67;;;35.40;31.60;;;;;;5079254;28;20441;-63
2021/10/01 12:01:09;;;;;;;20.33;19.50;;;35.80;30.70;;;;;;5065337;28;20457;-64
2021/10/01 12:03:36;;;;;;;19.73;18.97;;;36.80;30.00;;;;;;5059508;28;20204;-64
2021/10/01 12:06:02;;;;;;;18.70;18.00;;;35.10;29.90;;;;;;5058996;28;20229;-64
2021/10/01 12:08:35;;;;;;;19.00;18.27;;;34.40;31.10;;;;;;5058774;28;20228;-64
2021/10/01 12:11:02;;;;;;;19.73;18.93;;;34.80;30.70;;;;;;5078466;28;20458;-64
2021/10/01 12:13:30;;;;;;;18.23;17.53;;;33.80;31.20;;;;;;5079419;28;20503;-64
2021/10/01 12:16:00;;;;;;;20.27;19.47;;;32.10;32.20;;;;;;5079130;28;20473;-63
2021/10/01 12:18:30;;;;;;;19.20;18.40;;;30.70;34.00;;;;;;5078912;28;20852;-64
2021/10/01 12:20:59;;;;;;;19.53;18.73;;;28.60;35.30;;;;;;5061022;28;20948;-66
2021/10/01 12:23:29;;;;;;;19.03;18.23;;;27.80;37.60;;;;;;5061268;28;20452;-67
2021/10/01 12:26:13;;;;;;;18.97;18.17;;;27.20;38.70;;;;;;5062655;28;20495;-65
2021/10/01 12:28:41;;;;;;;20.30;19.37;;;26.80;40.00;;;;;;5062422;28;20446;-65
2021/10/01 12:31:08;;;;;;;18.70;18.07;;;26.30;40.40;;;;;;5065462;28;20923;-65
2021/10/01 12:33:35;;;;;;;19.73;18.83;;;26.10;41.00;;;;;;5083015;28;20449;-65
2021/10/01 12:36:02;;;;;;;18.93;18.13;;;26.40;40.10;;;;;;5082542;28;20477;-64
2021/10/01 12:38:29;;;;;;;19.47;18.47;;;26.40;39.60;;;;;;5082353;28;21218;-65
2021/10/01 12:41:12;;;;;;;18.77;18.07;;;26.20;40.60;;;;;;5082343;28;21014;-65
2021/10/01 12:43:46;;;;;;;19.83;18.77;;;25.80;42.00;;;;;;5077522;28;20541;-65
2021/10/01 12:46:14;;;;;;;18.07;17.40;;;25.80;43.00;;;;;;5062167;28;20478;-65
2021/10/01 12:48:40;;;;;;;17.77;17.07;;;25.50;43.00;;;;;;5062080;28;20446;-65
2021/10/01 12:51:23;;;;;;;18.77;18.03;;;25.70;42.90;;;;;;5062385;28;20458;-66
2021/10/01 12:53:50;;;;;;;17.50;16.80;;;25.80;43.10;;;;;;5061929;28;20524;-66
2021/10/01 12:56:19;;;;;;;17.27;16.67;;;25.70;43.60;;;;;;5062296;28;20481;-66
2021/10/01 12:58:46;;;;;;;16.87;16.37;;;26.10;42.90;;;;;;5071991;28;20510;-66
2021/10/01 13:01:19;;;;;;;18.57;17.83;;;26.40;43.30;;;;;;5082269;28;20507;-66
2021/10/01 13:03:49;;;;;;;18.20;17.47;;;26.80;41.90;;;;;;5081963;28;20457;-65
2021/10/01 13:06:31;;;;;;;17.57;16.97;;;27.50;41.00;;;;;;5082478;28;21078;-65
2021/10/01 13:08:58;;;;;;;16.70;16.10;;;28.30;39.90;;;;;;5080549;28;20461;-65
2021/10/01 13:11:26;;;;;;;17.90;17.07;;;28.20;39.20;;;;;;5081821;28;20465;-66
2021/10/01 13:13:53;;;;;;;18.30;17.60;;;27.60;39.60;;;;;;5068084;28;20454;-65
2021/10/01 13:16:26;;;;;;;18.73;17.83;;;26.90;40.10;;;;;;5061820;28;20474;-64
2021/10/01 13:19:04;;;;;;;17.60;17.00;;;26.60;41.10;;;;;;5081692;28;20489;-65
2021/10/01 13:21:31;;;;;;;16.83;16.10;;;27.00;40.80;;;;;;5081761;28;20446;-66
2021/10/01 13:23:59;;;;;;;17.10;16.37;;;28.00;40.10;;;;;;5081565;28;20450;-66
2021/10/01 13:26:29;;;;;;;18.17;17.37;;;27.60;39.50;;;;;;5081831;28;20466;-63
2021/10/01 13:29:01;;;;;;;17.83;16.90;;;26.90;40.00;;;;;;5081472;28;20886;-63
2021/10/01 13:31:29;;;;;;;17.20;16.60;;;26.60;40.30;;;;;;5081789;28;20450;-64
2021/10/01 13:33:56;;;;;;;18.13;17.30;;;26.30;40.80;;;;;;5081212;28;20999;-62
2021/10/01 13:36:24;;;;;;;18.57;17.77;;;25.50;41.90;;;;;;5061227;28;20475;-64
2021/10/01 13:38:51;;;;;;;17.80;17.10;;;25.20;42.30;;;;;;5061028;28;20490;-64
2021/10/01 13:41:21;;;;;;;17.00;16.30;;;24.90;42.80;;;;;;5061319;28;20450;-64
2021/10/01 13:43:49;;;;;;;17.57;16.97;;;25.00;43.10;;;;;;5061277;28;20896;-66
2021/10/01 13:46:18;;;;;;;17.87;17.17;;;24.80;42.80;;;;;;5061409;28;20475;-64
2021/10/01 13:48:46;;;;;;;17.97;17.20;;;25.10;42.50;;;;;;5073224;22;20491;-63
2021/10/01 13:51:13;;;;;;;17.83;17.10;;;25.50;41.70;;;;;;5033198;28;20609;-65
2021/10/01 13:53:39;;;;;;;17.07;16.47;;;25.70;41.40;;;;;;5040917;28;20452;-63
2021/10/01 13:56:07;;;;;;;17.87;17.17;;;25.60;40.70;;;;;;5022280;28;20543;-64
2021/10/01 13:58:34;;;;;;;17.50;16.80;;;25.70;40.50;;;;;;5020732;28;20523;-65
2021/10/01 14:01:04;;;;;;;16.87;16.27;;;25.90;40.60;;;;;;5020959;28;20442;-62
2021/10/01 14:03:31;;;;;;;16.80;16.20;;;25.60;40.40;;;;;;5020865;28;20539;-63
2021/10/01 14:05:58;;;;;;;17.43;16.73;;;25.80;40.20;;;;;;5004743;28;20454;-63
2021/10/01 14:08:25;;;;;;;17.30;16.63;;;26.30;39.70;;;;;;5001054;28;20469;-63